createdAt,value
2022-09-20T00:01:24.763Z,7.00
2022-09-20T00:03:53.953Z,7.60
2022-09-20T00:06:22.738Z,6.00
2022-09-20T00:08:51.656Z,5.00
2022-09-20T00:11:20.488Z,7.00
2022-09-20T00:13:49.174Z,7.00
2022-09-20T00:16:18.018Z,8.00
2022-09-20T00:18:46.880Z,7.00
2022-09-20T00:21:15.654Z,8.00
2022-09-20T00:23:44.360Z,7.00
2022-09-20T00:26:14.807Z,7.40
2022-09-20T00:28:44.436Z,8.40
2022-09-20T00:31:13.242Z,7.00
2022-09-20T00:34:00.091Z,7.20
2022-09-20T00:36:28.905Z,6.40
2022-09-20T00:38:57.664Z,6.50
2022-09-20T00:41:26.468Z,8.25
2022-09-20T00:43:55.314Z,7.00
2022-09-20T00:46:24.247Z,7.00
2022-09-20T00:48:53.291Z,7.20
2022-09-20T00:51:22.158Z,8.00
2022-09-20T00:53:50.870Z,8.00
2022-09-20T00:56:19.647Z,8.00
2022-09-20T00:58:48.305Z,7.00
2022-09-20T01:01:17.221Z,6.60
2022-09-20T01:03:46.477Z,6.80
2022-09-20T01:06:15.699Z,7.60
2022-09-20T01:08:45.593Z,7.60
2022-09-20T01:11:14.469Z,7.00
2022-09-20T01:13:43.161Z,6.00
2022-09-20T01:16:11.904Z,6.00
2022-09-20T01:18:40.680Z,6.40
2022-09-20T01:21:09.614Z,7.00
2022-09-20T01:23:38.580Z,6.00
2022-09-20T01:26:07.336Z,6.00
2022-09-20T01:28:36.169Z,7.00
2022-09-20T01:31:04.884Z,6.00
2022-09-20T01:33:33.602Z,6.00
2022-09-20T01:36:02.420Z,6.00
2022-09-20T01:38:31.261Z,6.00
2022-09-20T01:41:00.469Z,6.00
2022-09-20T01:43:29.271Z,7.00
2022-09-20T01:45:58.122Z,5.40
2022-09-20T01:48:26.989Z,6.80
2022-09-20T01:50:55.673Z,6.00
2022-09-20T01:53:24.411Z,6.00
2022-09-20T01:55:53.307Z,6.00
2022-09-20T01:58:22.405Z,6.80
2022-09-20T02:00:51.340Z,8.00
2022-09-20T02:03:20.143Z,5.75
2022-09-20T02:05:48.873Z,6.00
2022-09-20T02:08:17.632Z,6.20
2022-09-20T02:10:46.501Z,5.50
2022-09-20T02:13:15.565Z,6.00
2022-09-20T02:15:44.867Z,7.00
2022-09-20T02:18:13.602Z,6.00
2022-09-20T02:20:42.480Z,7.00
2022-09-20T02:23:11.312Z,6.40
2022-09-20T02:25:40.314Z,6.00
2022-09-20T02:28:09.112Z,5.60
2022-09-20T02:30:37.966Z,9.00
2022-09-20T02:33:06.778Z,7.60
2022-09-20T02:35:35.989Z,8.80
2022-09-20T02:38:05.079Z,7.00
2022-09-20T02:40:34.097Z,7.00
2022-09-20T02:43:02.983Z,5.20
2022-09-20T02:45:31.826Z,9.00
2022-09-20T02:48:00.661Z,8.00
2022-09-20T02:50:29.453Z,11.00
2022-09-20T02:52:58.317Z,8.60
2022-09-20T02:55:27.158Z,9.00
2022-09-20T02:57:55.992Z,7.60
2022-09-20T03:00:24.717Z,8.00
2022-09-20T03:02:53.533Z,8.00
2022-09-20T03:05:22.415Z,8.00
2022-09-20T03:08:03.161Z,9.00
2022-09-20T03:10:33.025Z,8.00
2022-09-20T03:13:01.782Z,7.50
2022-09-20T03:15:30.580Z,8.20
2022-09-20T03:17:59.425Z,9.50
2022-09-20T03:20:28.238Z,8.80
2022-09-20T03:22:57.074Z,10.00
2022-09-20T03:25:26.141Z,8.00
2022-09-20T03:27:54.906Z,8.00
2022-09-20T03:30:23.762Z,8.00
2022-09-20T03:32:53.457Z,7.60
2022-09-20T03:35:22.290Z,10.00
2022-09-20T03:37:51.150Z,10.00
2022-09-20T03:40:19.987Z,8.75
2022-09-20T03:42:49.507Z,10.50
2022-09-20T03:45:18.396Z,10.00
2022-09-20T03:47:47.157Z,8.00
2022-09-20T03:50:16.005Z,11.00
2022-09-20T03:52:44.790Z,9.40
2022-09-20T03:55:16.607Z,10.00
2022-09-20T03:57:45.442Z,11.00
2022-09-20T04:00:14.307Z,12.00
2022-09-20T04:02:43.255Z,11.50
2022-09-20T04:05:12.401Z,12.00
2022-09-20T04:07:41.326Z,13.75
2022-09-20T04:10:10.414Z,12.20
2022-09-20T04:12:39.252Z,13.75
2022-09-20T04:15:08.153Z,14.00
2022-09-20T04:17:37.330Z,12.00
2022-09-20T04:20:06.220Z,13.80
2022-09-20T04:22:35.681Z,15.00
2022-09-20T04:25:04.638Z,15.00
2022-09-20T04:27:33.606Z,14.00
2022-09-20T04:30:02.580Z,19.40
2022-09-20T04:32:31.367Z,20.60
2022-09-20T04:35:19.125Z,19.20
2022-09-20T04:37:48.023Z,20.80
2022-09-20T04:40:17.360Z,19.00
2022-09-20T04:42:46.191Z,20.50
2022-09-20T04:45:15.004Z,17.00
2022-09-20T04:47:43.750Z,23.00
2022-09-20T04:50:12.576Z,26.00
2022-09-20T04:52:41.425Z,23.00
2022-09-20T04:55:10.524Z,24.00
2022-09-20T04:57:40.698Z,20.00
2022-09-20T05:00:13.070Z,22.60
2022-09-20T05:02:42.889Z,21.40
2022-09-20T05:05:11.839Z,21.00
2022-09-20T05:07:40.695Z,20.40
2022-09-20T05:10:09.598Z,19.00
2022-09-20T05:12:38.781Z,16.00
2022-09-20T05:15:08.920Z,19.00
2022-09-20T05:17:38.226Z,16.75
2022-09-20T05:20:07.028Z,17.00
2022-09-20T05:22:36.784Z,14.80
2022-09-20T05:25:07.523Z,14.75
2022-09-20T05:27:36.209Z,16.00
2022-09-20T05:30:05.358Z,13.00
2022-09-20T05:32:34.207Z,11.50
2022-09-20T05:35:02.997Z,13.75
2022-09-20T05:37:32.362Z,14.40
2022-09-20T05:40:01.278Z,12.50
2022-09-20T05:42:30.875Z,14.00
2022-09-20T05:44:59.814Z,13.20
2022-09-20T05:47:29.228Z,14.00
2022-09-20T05:49:58.075Z,19.25
2022-09-20T05:52:26.864Z,23.00
2022-09-20T05:54:55.962Z,14.80
2022-09-20T05:57:24.775Z,22.00
2022-09-20T05:59:53.658Z,19.20
2022-09-20T06:02:22.615Z,16.80
2022-09-20T06:04:51.425Z,14.75
2022-09-20T06:07:22.124Z,16.40
2022-09-20T06:09:50.977Z,13.50
2022-09-20T06:12:19.775Z,15.75
2022-09-20T06:14:48.631Z,13.60
2022-09-20T06:17:17.905Z,12.80
2022-09-20T06:19:46.804Z,15.40
2022-09-20T06:22:16.008Z,14.00
2022-09-20T06:24:44.995Z,13.50
2022-09-20T06:27:13.619Z,13.20
2022-09-20T06:29:42.483Z,12.75
2022-09-20T06:32:11.289Z,12.00
2022-09-20T06:34:39.966Z,13.50
2022-09-20T06:37:27.224Z,10.20
2022-09-20T06:40:14.561Z,13.25
2022-09-20T06:42:45.394Z,14.25
2022-09-20T06:45:14.282Z,13.80
2022-09-20T06:47:43.629Z,13.00
2022-09-20T06:50:14.112Z,15.00
2022-09-20T06:52:43.036Z,12.50
2022-09-20T06:55:12.437Z,14.00
2022-09-20T06:57:41.303Z,12.00
2022-09-20T07:00:12.492Z,13.00
2022-09-20T07:02:41.290Z,13.00
2022-09-20T07:05:12.285Z,13.20
2022-09-20T07:07:41.228Z,14.00
2022-09-20T07:10:10.073Z,13.00
2022-09-20T07:12:38.934Z,14.00
2022-09-20T07:15:08.543Z,16.80
2022-09-20T07:17:37.526Z,14.00
2022-09-20T07:20:06.385Z,15.60
2022-09-20T07:22:35.077Z,14.00
2022-09-20T07:25:03.997Z,14.00
2022-09-20T07:27:32.647Z,14.00
2022-09-20T07:30:01.409Z,14.60
2022-09-20T07:32:31.061Z,12.00
2022-09-20T07:35:00.037Z,14.00
2022-09-20T07:37:28.786Z,17.20
2022-09-20T07:39:57.704Z,15.00
2022-09-20T07:42:26.631Z,19.00
2022-09-20T07:44:56.589Z,15.00
2022-09-20T07:47:28.512Z,16.00
2022-09-20T07:49:57.797Z,23.20
2022-09-20T07:52:26.636Z,20.00
2022-09-20T07:54:57.001Z,23.60
2022-09-20T07:57:25.807Z,22.00
2022-09-20T07:59:54.472Z,24.00
2022-09-20T08:02:24.190Z,20.00
2022-09-20T08:04:53.172Z,23.50
2022-09-20T08:07:21.972Z,20.50
2022-09-20T08:09:51.405Z,22.00
2022-09-20T08:15:11.891Z,22.00
2022-09-20T08:17:41.240Z,21.00
2022-09-20T08:20:10.535Z,20.00
2022-09-20T08:22:42.918Z,21.40
2022-09-20T08:25:11.877Z,21.00
2022-09-20T08:27:40.680Z,20.00
2022-09-20T08:30:09.724Z,21.00
2022-09-20T08:32:38.418Z,22.00
2022-09-20T08:35:08.788Z,20.00
2022-09-20T08:37:37.678Z,22.00
2022-09-20T08:40:09.076Z,24.00
2022-09-20T08:42:42.021Z,23.00
2022-09-20T08:45:22.233Z,25.00
2022-09-20T08:47:54.203Z,24.00
2022-09-20T08:50:26.662Z,26.00
2022-09-20T08:53:00.238Z,26.00
2022-09-20T08:55:36.463Z,26.00
2022-09-20T08:58:08.750Z,27.75
2022-09-20T09:00:37.955Z,26.00
2022-09-20T09:03:06.825Z,27.00
2022-09-20T09:05:36.175Z,27.60
2022-09-20T09:08:05.486Z,27.00
2022-09-20T09:10:42.568Z,27.75
2022-09-20T09:13:14.713Z,31.67
2022-09-20T09:15:43.601Z,29.00
2022-09-20T09:18:12.467Z,30.50
2022-09-20T09:20:41.292Z,30.50
2022-09-20T09:23:10.188Z,30.50
2022-09-20T09:25:39.212Z,30.75
2022-09-20T09:28:08.104Z,30.60
2022-09-20T09:30:36.938Z,30.00
2022-09-20T09:33:05.854Z,28.80
2022-09-20T09:35:34.563Z,29.75
2022-09-20T09:38:03.427Z,28.40
2022-09-20T09:40:32.622Z,29.00
2022-09-20T09:43:01.678Z,28.40
2022-09-20T09:45:31.240Z,29.40
2022-09-20T09:48:00.625Z,29.00
2022-09-20T09:50:29.400Z,30.00
2022-09-20T09:52:59.141Z,28.40
2022-09-20T09:55:28.685Z,28.00
2022-09-20T09:57:57.532Z,27.50
2022-09-20T10:00:27.876Z,27.20
2022-09-20T10:02:56.601Z,27.50
2022-09-20T10:05:25.398Z,26.40
2022-09-20T10:07:55.187Z,29.00
2022-09-20T10:10:23.882Z,27.50
2022-09-20T10:12:52.863Z,28.00
2022-09-20T10:15:22.769Z,27.00
2022-09-20T10:17:52.469Z,28.00
2022-09-20T10:20:21.387Z,26.00
2022-09-20T10:23:14.682Z,28.20
2022-09-20T10:25:39.941Z,25.50
2022-09-20T10:28:08.738Z,28.00
2022-09-20T10:30:37.547Z,27.00
2022-09-20T10:33:06.555Z,28.00
2022-09-20T10:35:36.025Z,29.60
2022-09-20T10:38:04.905Z,29.60
2022-09-20T10:40:53.459Z,29.00
2022-09-20T10:43:23.109Z,28.40
2022-09-20T10:48:40.650Z,26.80
2022-09-20T10:51:09.738Z,24.00
2022-09-20T10:53:39.003Z,23.75
2022-09-20T10:56:07.680Z,23.60
2022-09-20T10:58:36.310Z,28.00
2022-09-20T11:01:05.323Z,23.00
2022-09-20T11:03:34.284Z,26.00
2022-09-20T11:06:03.353Z,24.00
2022-09-20T11:08:32.165Z,24.00
2022-09-20T11:11:01.385Z,25.75
2022-09-20T11:13:30.154Z,31.00
2022-09-20T11:16:02.647Z,26.00
2022-09-20T11:18:34.470Z,23.00
2022-09-20T11:21:03.387Z,23.00
2022-09-20T11:23:32.177Z,21.00
2022-09-20T11:26:01.600Z,19.00
2022-09-20T11:28:31.354Z,20.00
2022-09-20T11:31:01.510Z,17.50
2022-09-20T11:33:30.240Z,19.00
2022-09-20T11:35:59.160Z,16.75
2022-09-20T11:38:27.990Z,17.50
2022-09-20T11:40:56.980Z,16.50
2022-09-20T11:43:29.861Z,17.00
2022-09-20T11:45:58.847Z,14.00
2022-09-20T11:48:27.561Z,15.50
2022-09-20T11:50:57.939Z,14.00
2022-09-20T11:53:26.763Z,15.00
2022-09-20T11:55:55.524Z,14.00
2022-09-20T11:58:24.238Z,13.00
2022-09-20T12:00:53.210Z,15.25
2022-09-20T12:03:22.321Z,15.60
2022-09-20T12:05:51.561Z,16.00
2022-09-20T12:08:20.411Z,17.00
2022-09-20T12:10:52.017Z,16.00
2022-09-20T12:14:46.396Z,14.25
2022-09-20T12:17:16.164Z,11.60
2022-09-20T12:19:44.843Z,13.50
2022-09-20T12:22:13.742Z,11.40
2022-09-20T12:24:45.521Z,12.75
2022-09-20T12:27:15.632Z,11.40
2022-09-20T12:29:44.245Z,14.00
2022-09-20T12:32:12.937Z,15.60
2022-09-20T12:34:41.767Z,17.00
2022-09-20T12:37:11.126Z,15.00
2022-09-20T12:39:39.797Z,12.75
2022-09-20T12:42:08.794Z,14.00
2022-09-20T12:44:37.525Z,14.25
2022-09-20T12:47:07.028Z,13.00
2022-09-20T12:49:53.930Z,12.40
2022-09-20T12:52:41.088Z,12.00
2022-09-20T12:55:12.103Z,12.60
2022-09-20T12:57:41.672Z,13.00
2022-09-20T13:00:10.613Z,12.00
2022-09-20T13:02:39.504Z,10.80
2022-09-20T13:05:08.492Z,12.40
2022-09-20T13:07:41.306Z,10.20
2022-09-20T13:10:12.397Z,11.00
2022-09-20T13:12:41.192Z,11.80
2022-09-20T13:15:10.189Z,12.25
2022-09-20T13:17:38.948Z,10.00
2022-09-20T13:20:07.620Z,12.00
2022-09-20T13:22:37.869Z,13.00
2022-09-20T13:25:06.695Z,11.80
2022-09-20T13:27:35.532Z,12.00
2022-09-20T13:30:04.415Z,13.20
2022-09-20T13:32:35.269Z,14.60
2022-09-20T13:35:04.001Z,14.00
2022-09-20T13:37:33.231Z,13.00
2022-09-20T13:40:04.617Z,12.50
2022-09-20T13:42:34.175Z,11.00
2022-09-20T13:45:04.264Z,13.00
2022-09-20T13:47:33.187Z,13.00
2022-09-20T13:50:02.079Z,14.00
2022-09-20T13:52:31.383Z,11.60
2022-09-20T13:55:00.221Z,11.00
2022-09-20T13:57:29.104Z,13.50
2022-09-20T13:59:58.815Z,11.20
2022-09-20T14:02:27.795Z,10.60
2022-09-20T14:04:56.899Z,10.20
2022-09-20T14:07:29.140Z,11.50
2022-09-20T14:09:58.258Z,11.20
2022-09-20T14:12:27.187Z,11.20
2022-09-20T14:14:56.775Z,11.00
2022-09-20T14:17:25.685Z,12.25
2022-09-20T14:19:55.355Z,13.00
2022-09-20T14:22:24.282Z,15.00
2022-09-20T14:24:53.388Z,14.00
2022-09-20T14:27:22.262Z,15.20
2022-09-20T14:29:51.327Z,13.80
2022-09-20T14:32:20.022Z,14.80
2022-09-20T14:34:48.746Z,18.50
2022-09-20T14:37:17.757Z,20.00
2022-09-20T14:39:46.441Z,21.25
2022-09-20T14:42:15.124Z,23.00
2022-09-20T14:44:43.982Z,26.00
2022-09-20T14:47:12.831Z,25.60
2022-09-20T14:49:41.462Z,26.00
2022-09-20T14:52:10.343Z,26.00
2022-09-20T14:54:39.019Z,23.00
2022-09-20T14:57:07.874Z,21.00
2022-09-20T14:59:36.839Z,16.60
2022-09-20T15:02:05.917Z,19.00
2022-09-20T15:04:36.294Z,13.80
2022-09-20T15:07:05.285Z,15.60
2022-09-20T15:09:33.980Z,18.40
2022-09-20T15:12:02.804Z,18.20
2022-09-20T15:14:36.491Z,19.00
2022-09-20T15:17:06.323Z,17.00
2022-09-20T15:19:35.279Z,18.25
2022-09-20T15:22:04.099Z,17.00
2022-09-20T15:24:32.992Z,18.00
2022-09-20T15:27:01.706Z,16.50
2022-09-20T15:29:31.060Z,18.00
2022-09-20T15:31:59.777Z,22.00
2022-09-20T15:34:28.503Z,18.40
2022-09-20T15:36:57.471Z,20.00
2022-09-20T15:39:26.774Z,20.00
2022-09-20T15:41:55.582Z,20.00
2022-09-20T15:44:24.435Z,19.80
2022-09-20T15:46:54.473Z,17.80
2022-09-20T15:49:23.313Z,17.80
2022-09-20T15:51:53.356Z,18.00
2022-09-20T15:54:22.099Z,15.25
2022-09-20T15:56:54.017Z,17.80
2022-09-20T15:59:24.045Z,18.60
2022-09-20T16:01:52.958Z,15.60
2022-09-20T16:04:21.846Z,14.60
2022-09-20T16:06:50.715Z,13.60
2022-09-20T16:09:19.496Z,15.00
2022-09-20T16:11:48.484Z,16.50
2022-09-20T16:14:17.434Z,14.00
2022-09-20T16:16:46.146Z,12.60
2022-09-20T16:19:21.662Z,15.25
2022-09-20T16:21:56.590Z,14.00
2022-09-20T16:24:26.964Z,12.00
2022-09-20T16:26:56.365Z,11.00
2022-09-20T16:29:26.483Z,12.00
2022-09-20T16:31:55.661Z,12.50
2022-09-20T16:34:24.751Z,12.60
2022-09-20T16:36:54.661Z,14.00
2022-09-20T16:39:28.515Z,13.00
2022-09-20T16:42:04.365Z,13.00
2022-09-20T16:44:33.282Z,13.00
2022-09-20T16:47:02.106Z,13.00
2022-09-20T16:49:30.998Z,12.80
2022-09-20T16:51:59.870Z,12.00
2022-09-20T16:54:31.945Z,12.00
2022-09-20T16:57:01.322Z,12.75
2022-09-20T16:59:29.967Z,9.80
2022-09-20T17:01:58.862Z,10.00
2022-09-20T17:04:27.821Z,11.00
2022-09-20T17:06:56.639Z,9.80
2022-09-20T17:09:25.495Z,10.80
2022-09-20T17:11:54.693Z,12.00
2022-09-20T17:14:25.132Z,9.60
2022-09-20T17:16:54.046Z,10.75
2022-09-20T17:19:22.771Z,11.80
2022-09-20T17:21:51.623Z,11.80
2022-09-20T17:24:20.312Z,11.60
2022-09-20T17:26:49.617Z,10.20
2022-09-20T17:29:18.373Z,10.00
2022-09-20T17:31:53.243Z,13.80
2022-09-20T17:34:23.869Z,12.00
2022-09-20T17:36:52.672Z,9.00
2022-09-20T17:39:21.330Z,10.00
2022-09-20T17:41:50.057Z,9.80
2022-09-20T17:44:19.955Z,11.75
2022-09-20T17:46:50.321Z,9.75
2022-09-20T17:49:19.168Z,10.33
2022-09-20T17:51:48.053Z,10.00
2022-09-20T17:54:16.841Z,9.50
2022-09-20T17:56:45.793Z,9.00
2022-09-20T17:59:18.688Z,10.60
2022-09-20T18:01:47.945Z,10.00
2022-09-20T18:04:16.856Z,12.00
2022-09-20T18:06:45.649Z,10.80
2022-09-20T18:09:18.670Z,10.75
2022-09-20T18:11:49.699Z,11.00
2022-09-20T18:14:18.649Z,12.00
2022-09-20T18:16:47.835Z,9.60
2022-09-20T18:19:16.888Z,8.00
2022-09-20T18:21:45.714Z,10.50
2022-09-20T18:24:14.384Z,9.00
2022-09-20T18:26:43.282Z,11.00
2022-09-20T18:29:15.293Z,10.40
2022-09-20T18:31:45.518Z,9.60
2022-09-20T18:34:16.399Z,10.00
2022-09-20T18:36:45.065Z,9.50
2022-09-20T18:39:16.552Z,10.25
2022-09-20T18:41:45.655Z,9.00
2022-09-20T18:44:15.322Z,8.00
2022-09-20T18:46:44.144Z,10.00
2022-09-20T18:49:14.670Z,10.00
2022-09-20T18:51:43.432Z,10.80
2022-09-20T18:54:12.122Z,11.00
2022-09-20T18:56:40.858Z,9.00
2022-09-20T18:59:09.531Z,9.00
2022-09-20T19:01:38.507Z,10.00
2022-09-20T19:04:07.433Z,9.00
2022-09-20T19:06:36.213Z,9.00
2022-09-20T19:09:05.165Z,9.50
2022-09-20T19:11:34.098Z,9.80
2022-09-20T19:14:02.960Z,10.00
2022-09-20T19:16:31.722Z,9.00
2022-09-20T19:19:01.798Z,9.60
2022-09-20T19:21:30.491Z,9.00
2022-09-20T19:24:03.082Z,9.00
2022-09-20T19:26:33.396Z,9.00
2022-09-20T19:29:02.941Z,8.00
2022-09-20T19:31:31.772Z,8.00
2022-09-20T19:34:00.676Z,8.00
2022-09-20T19:36:29.416Z,9.60
2022-09-20T19:38:58.279Z,8.75
2022-09-20T19:41:27.514Z,7.25
2022-09-20T19:43:58.077Z,8.00
2022-09-20T19:46:27.864Z,8.00
2022-09-20T19:48:57.332Z,7.00
2022-09-20T19:51:26.857Z,7.00
2022-09-20T19:53:56.285Z,7.40
2022-09-20T19:56:25.720Z,6.75
2022-09-20T19:58:55.016Z,8.00
2022-09-20T20:01:24.005Z,7.40
2022-09-20T20:03:52.862Z,8.00
2022-09-20T20:06:21.698Z,8.00
2022-09-20T20:08:51.476Z,7.00
2022-09-20T20:11:20.349Z,7.20
2022-09-20T20:14:04.376Z,7.00
2022-09-20T20:16:34.427Z,8.00
2022-09-20T20:19:03.251Z,7.50
2022-09-20T20:21:33.688Z,8.80
2022-09-20T20:24:03.597Z,6.60
2022-09-20T20:26:32.291Z,7.25
2022-09-20T20:29:00.980Z,6.00
2022-09-20T20:31:30.496Z,6.00
2022-09-20T20:33:59.376Z,7.00
2022-09-20T20:36:28.185Z,7.00
2022-09-20T20:38:57.631Z,6.25
2022-09-20T20:41:28.536Z,5.00
2022-09-20T20:43:58.001Z,6.00
2022-09-20T20:46:27.170Z,5.40
2022-09-20T20:48:56.153Z,6.00
2022-09-20T20:51:24.904Z,6.40
2022-09-20T20:53:53.601Z,4.60
2022-09-20T20:56:22.686Z,6.60
2022-09-20T20:58:51.328Z,6.00
2022-09-20T21:01:20.404Z,7.00
2022-09-20T21:03:49.402Z,6.40
2022-09-20T21:06:18.203Z,6.60
2022-09-20T21:08:49.554Z,5.60
2022-09-20T21:11:19.602Z,6.60
2022-09-20T21:13:51.165Z,5.60
2022-09-20T21:16:19.831Z,6.00
2022-09-20T21:18:48.708Z,5.00
2022-09-20T21:21:17.516Z,5.00
2022-09-20T21:23:47.322Z,7.00
2022-09-20T21:26:16.711Z,5.00
2022-09-20T21:28:45.431Z,5.00
2022-09-20T21:31:14.235Z,5.50
2022-09-20T21:33:43.178Z,5.00
2022-09-20T21:36:13.626Z,5.00
2022-09-20T21:38:42.450Z,6.00
2022-09-20T21:41:12.638Z,4.00
2022-09-20T21:43:44.209Z,4.60
2022-09-20T21:46:13.144Z,4.00
2022-09-20T21:48:42.058Z,5.00
2022-09-20T21:51:11.778Z,5.00
2022-09-20T21:53:40.914Z,5.00
2022-09-20T21:56:09.625Z,5.00
2022-09-20T21:58:40.896Z,4.00
2022-09-20T22:01:12.687Z,5.00
2022-09-20T22:03:41.639Z,3.40
2022-09-20T22:06:10.675Z,4.00
2022-09-20T22:08:39.541Z,3.00
2022-09-20T22:11:12.310Z,5.00
2022-09-20T22:13:43.720Z,5.00
2022-09-20T22:16:12.617Z,5.00
2022-09-20T22:18:41.457Z,4.60
2022-09-20T22:21:10.303Z,5.00
2022-09-20T22:23:39.110Z,4.00
2022-09-20T22:26:07.982Z,4.00
2022-09-20T22:28:36.914Z,4.80
2022-09-20T22:31:05.728Z,4.25
2022-09-20T22:33:34.603Z,5.00
2022-09-20T22:36:03.582Z,3.40
2022-09-20T22:38:32.424Z,5.50
2022-09-20T22:41:01.176Z,3.40
2022-09-20T22:43:30.023Z,5.00
2022-09-20T22:45:58.886Z,4.00
2022-09-20T22:48:27.886Z,5.00
2022-09-20T22:50:56.589Z,4.00
2022-09-20T22:53:25.261Z,4.00
2022-09-20T22:55:54.140Z,5.00
2022-09-20T22:58:23.033Z,5.00
2022-09-20T23:00:52.000Z,6.00
2022-09-20T23:03:20.952Z,5.50
2022-09-20T23:05:49.927Z,4.00
2022-09-20T23:08:18.699Z,3.60
2022-09-20T23:10:47.640Z,5.00
2022-09-20T23:13:16.462Z,5.00
2022-09-20T23:15:45.345Z,4.00
2022-09-20T23:18:14.250Z,4.00
2022-09-20T23:20:43.153Z,5.00
2022-09-20T23:23:11.970Z,5.00
2022-09-20T23:25:40.742Z,4.00
2022-09-20T23:28:09.562Z,5.00
2022-09-20T23:30:38.380Z,4.20
2022-09-20T23:33:07.160Z,3.40
2022-09-20T23:35:36.571Z,5.00
2022-09-20T23:38:05.335Z,5.00
2022-09-20T23:40:34.279Z,4.00
2022-09-20T23:43:03.211Z,4.00
2022-09-20T23:45:32.107Z,3.80
2022-09-20T23:48:00.986Z,5.00
2022-09-20T23:50:29.824Z,5.00
2022-09-20T23:52:58.672Z,4.00
2022-09-20T23:55:27.492Z,4.00
2022-09-20T23:57:58.323Z,5.00
